Time;durP1;ratioP1;P1;durP2;ratioP2;P2;SDS_P1;SDS_P2;PMS_P1;PMS_P2;Temp;Humidity;BMP_temperature;BMP_pressure;BME280_temperature;BME280_humidity;BME280_pressure;Samples;Min_cycle;Max_cycle;Signal;HPM_P1;HPM_P2
2021/12/30 00:00:37;;;;;;;9.25;3.92;;;12.00;99.90;;;;;;5073816;28;20024;-89
2021/12/30 00:03:05;;;;;;;21.10;4.50;;;12.10;99.90;;;;;;5099080;28;20542;-87
2021/12/30 00:05:32;;;;;;;8.52;2.85;;;12.00;99.90;;;;;;5074392;28;20096;-88
2021/12/30 00:07:58;;;;;;;11.65;3.80;;;;;;;;;;5086058;28;20607;-88
2021/12/30 00:10:23;;;;;;;5.22;2.97;;;12.00;99.90;;;;;;5079529;28;20028;-88
2021/12/30 00:12:51;;;;;;;11.45;3.45;;;12.00;99.90;;;;;;5083313;28;20035;-89
2021/12/30 00:15:17;;;;;;;11.68;3.72;;;11.90;99.90;;;;;;5100338;28;20015;-88
2021/12/30 00:17:43;;;;;;;11.40;4.57;;;12.00;99.90;;;;;;5082476;28;20031;-89
2021/12/30 00:20:09;;;;;;;20.60;4.07;;;11.80;99.90;;;;;;5079500;28;20020;-88
2021/12/30 00:22:37;;;;;;;8.30;1.90;;;11.90;99.90;;;;;;5075727;28;20039;-89
2021/12/30 00:25:03;;;;;;;8.27;2.75;;;11.80;99.90;;;;;;5073505;28;20483;-89
2021/12/30 00:27:29;;;;;;;24.90;4.72;;;11.90;99.90;;;;;;5088000;28;20012;-88
2021/12/30 00:29:55;;;;;;;10.98;3.65;;;11.90;99.90;;;;;;5079773;28;20520;-88
2021/12/30 00:32:20;;;;;;;13.68;4.28;;;11.80;99.90;;;;;;5072371;28;20028;-89
2021/12/30 00:34:46;;;;;;;15.80;4.07;;;11.80;99.90;;;;;;5075546;28;20036;-88
2021/12/30 00:37:12;;;;;;;9.30;3.60;;;11.80;99.90;;;;;;5077896;28;20028;-88
2021/12/30 00:39:38;;;;;;;13.40;4.47;;;11.80;99.90;;;;;;5071205;28;20023;-88
2021/12/30 00:42:04;;;;;;;12.68;3.47;;;11.70;99.90;;;;;;5064360;28;20128;-88
2021/12/30 00:44:29;;;;;;;12.25;3.88;;;11.80;99.90;;;;;;5079310;28;20432;-88
2021/12/30 00:46:57;;;;;;;19.88;4.35;;;11.70;99.90;;;;;;5085628;28;20028;-89
2021/12/30 00:49:23;;;;;;;12.43;2.65;;;11.80;99.90;;;;;;5077291;28;20039;-89
2021/12/30 00:51:49;;;;;;;9.95;3.40;;;;;;;;;;5067969;28;20734;-88
2021/12/30 00:54:15;;;;;;;5.97;3.03;;;11.70;99.90;;;;;;5075844;28;20069;-89
2021/12/30 00:56:41;;;;;;;11.13;3.97;;;11.70;99.90;;;;;;5073554;28;20078;-88
2021/12/30 00:59:07;;;;;;;18.73;4.32;;;11.70;99.90;;;;;;5073708;28;20439;-88
2021/12/30 01:01:33;;;;;;;11.95;3.50;;;11.60;99.90;;;;;;5079686;28;20032;-89
2021/12/30 01:03:59;;;;;;;14.70;3.47;;;11.60;99.90;;;;;;5074556;28;20082;-88
2021/12/30 01:06:24;;;;;;;8.27;3.42;;;11.60;99.90;;;;;;5069185;28;20020;-89
2021/12/30 01:08:50;;;;;;;18.75;3.50;;;11.60;99.90;;;;;;5073918;28;20120;-88
2021/12/30 01:11:16;;;;;;;13.10;4.00;;;11.60;99.90;;;;;;5077242;28;20029;-88
2021/12/30 01:13:45;;;;;;;11.07;2.75;;;11.50;99.90;;;;;;5074517;28;20706;-89
2021/12/30 01:16:18;;;;;;;8.55;3.42;;;11.60;99.90;;;;;;5069452;28;20028;-88
2021/12/30 01:21:23;;;;;;;9.98;3.17;;;11.60;99.90;;;;;;5081877;28;20016;-88
2021/12/30 01:23:49;;;;;;;2.72;1.38;;;11.60;99.90;;;;;;5068241;28;20035;-89
2021/12/30 01:26:14;;;;;;;3.25;1.88;;;11.70;99.90;;;;;;5076364;28;20021;-89
2021/12/30 01:28:40;;;;;;;23.48;3.38;;;11.70;99.90;;;;;;5081681;28;20054;-89
2021/12/30 01:31:07;;;;;;;8.00;2.72;;;11.60;99.90;;;;;;5075687;28;20024;-88
2021/12/30 01:33:32;;;;;;;7.65;2.20;;;11.70;99.90;;;;;;5079534;28;20024;-88
2021/12/30 01:35:58;;;;;;;8.27;2.67;;;11.70;99.90;;;;;;5072775;28;20028;-88
2021/12/30 01:38:24;;;;;;;6.43;2.70;;;11.70;99.90;;;;;;5073415;28;20086;-88
2021/12/30 01:40:54;;;;;;;13.10;3.50;;;11.70;99.90;;;;;;5073486;28;20443;-88
2021/12/30 01:43:20;;;;;;;8.00;2.45;;;11.70;99.90;;;;;;5073964;28;20025;-89
2021/12/30 01:45:46;;;;;;;9.18;2.53;;;11.70;99.90;;;;;;5072514;28;20450;-88
2021/12/30 01:48:13;;;;;;;7.60;2.25;;;11.70;99.90;;;;;;5075902;28;20119;-88
2021/12/30 01:50:40;;;;;;;4.78;1.83;;;11.70;99.90;;;;;;5081265;28;20088;-88
2021/12/30 01:53:07;;;;;;;7.47;1.90;;;11.70;99.90;;;;;;5076369;28;20135;-88
2021/12/30 01:55:35;;;;;;;7.30;2.30;;;11.70;99.90;;;;;;5081816;28;20024;-88
2021/12/30 01:58:02;;;;;;;12.27;1.98;;;11.70;99.90;;;;;;5075231;28;20083;-88
2021/12/30 02:00:29;;;;;;;14.10;2.72;;;11.70;99.90;;;;;;5085144;28;20725;-88
2021/12/30 02:02:55;;;;;;;6.15;1.80;;;11.80;99.90;;;;;;5079688;28;20024;-88
2021/12/30 02:05:21;;;;;;;8.73;2.05;;;11.80;99.90;;;;;;5095728;28;20352;-88
2021/12/30 02:07:47;;;;;;;17.30;2.65;;;11.80;99.90;;;;;;5073967;28;20031;-88
2021/12/30 02:10:13;;;;;;;7.32;2.38;;;11.90;99.90;;;;;;5076837;28;20047;-88
2021/12/30 02:12:41;;;;;;;12.70;2.08;;;11.90;99.90;;;;;;5078329;28;20451;-89
2021/12/30 02:15:10;;;;;;;7.40;1.40;;;11.90;99.90;;;;;;5076684;28;20024;-88
2021/12/30 02:17:36;;;;;;;14.98;2.45;;;11.90;99.90;;;;;;5079292;28;20567;-89
2021/12/30 02:20:06;;;;;;;4.43;1.83;;;11.90;99.90;;;;;;5072752;28;20028;-88
2021/12/30 02:22:31;;;;;;;10.60;1.70;;;11.90;99.90;;;;;;5073922;28;20165;-88
2021/12/30 02:24:59;;;;;;;11.40;3.42;;;11.90;99.90;;;;;;5087832;28;20534;-89
2021/12/30 02:27:26;;;;;;;5.65;2.08;;;12.00;99.90;;;;;;5091491;28;20103;-89
2021/12/30 02:29:52;;;;;;;4.50;1.50;;;12.00;99.90;;;;;;5076840;28;20585;-89
2021/12/30 02:32:21;;;;;;;7.68;2.80;;;12.00;99.90;;;;;;5075542;28;20428;-89
2021/12/30 02:34:47;;;;;;;15.35;2.60;;;12.40;99.90;;;;;;5077272;28;20073;-89
2021/12/30 02:37:16;;;;;;;13.93;2.83;;;12.00;99.90;;;;;;5083307;28;20028;-89
2021/12/30 02:39:47;;;;;;;2.45;1.23;;;12.00;99.90;;;;;;5080249;28;20028;-89
2021/12/30 02:42:12;;;;;;;15.18;2.65;;;12.00;99.90;;;;;;5072512;28;20024;-88
2021/12/30 02:44:38;;;;;;;15.80;3.28;;;11.70;99.90;;;;;;5098752;28;20034;-88
2021/12/30 02:47:04;;;;;;;7.25;2.58;;;12.10;99.90;;;;;;5083627;28;20024;-88
2021/12/30 02:49:29;;;;;;;4.85;2.22;;;12.00;99.90;;;;;;5086854;28;20533;-88
2021/12/30 02:51:55;;;;;;;5.32;2.10;;;12.00;99.90;;;;;;5081922;28;20082;-88
2021/12/30 02:54:21;;;;;;;9.05;1.90;;;12.00;99.90;;;;;;5079230;28;20444;-88
2021/12/30 02:56:47;;;;;;;6.43;1.67;;;;;;;;;;5078049;28;20029;-88
2021/12/30 02:59:14;;;;;;;7.07;3.65;;;12.00;99.90;;;;;;5080493;28;20499;-88
2021/12/30 03:01:40;;;;;;;12.85;2.28;;;12.00;99.90;;;;;;5073757;28;20025;-88
2021/12/30 03:04:07;;;;;;;2.42;1.33;;;12.00;99.90;;;;;;5086295;28;20042;-89
2021/12/30 03:06:33;;;;;;;5.32;1.65;;;12.10;99.90;;;;;;5084060;28;20111;-89
2021/12/30 03:08:59;;;;;;;6.05;1.95;;;12.10;99.90;;;;;;5086864;28;20395;-89
2021/12/30 03:11:26;;;;;;;7.50;2.10;;;12.00;99.90;;;;;;5086567;28;20024;-88
2021/12/30 03:13:53;;;;;;;7.13;2.22;;;;;;;;;;5086384;28;20115;-88
2021/12/30 03:16:25;;;;;;;7.65;1.98;;;12.10;99.90;;;;;;5083999;28;20487;-89
2021/12/30 03:18:52;;;;;;;5.55;1.73;;;12.10;99.90;;;;;;5085329;28;20443;-88
2021/12/30 03:21:20;;;;;;;6.53;1.90;;;12.10;99.90;;;;;;5091387;28;20463;-89
2021/12/30 03:23:47;;;;;;;10.30;2.90;;;12.20;99.90;;;;;;5078082;28;20025;-88
2021/12/30 03:26:14;;;;;;;12.63;2.42;;;12.10;99.90;;;;;;5075420;28;20037;-88
2021/12/30 03:28:40;;;;;;;5.22;1.75;;;12.10;99.90;;;;;;5085734;28;20502;-89
2021/12/30 03:31:12;;;;;;;8.55;1.52;;;12.10;99.90;;;;;;5086128;28;20016;-89
2021/12/30 03:33:38;;;;;;;5.15;2.25;;;12.10;99.90;;;;;;5087953;28;20471;-89
2021/12/30 03:36:05;;;;;;;8.48;1.80;;;12.10;99.90;;;;;;5084125;28;20016;-88
2021/12/30 03:38:34;;;;;;;4.93;1.67;;;12.00;99.90;;;;;;5079999;28;20122;-88
2021/12/30 03:41:00;;;;;;;6.95;2.15;;;12.00;99.90;;;;;;5083263;28;20043;-89
2021/12/30 03:43:27;;;;;;;13.82;2.25;;;11.90;99.90;;;;;;5055712;28;20079;-89
2021/12/30 03:45:53;;;;;;;8.40;1.90;;;11.90;99.90;;;;;;5083351;28;20025;-88
2021/12/30 03:48:20;;;;;;;8.57;2.35;;;12.00;99.90;;;;;;5083054;28;20084;-88
2021/12/30 03:50:47;;;;;;;6.30;1.55;;;11.90;99.90;;;;;;5088508;28;20040;-88
2021/12/30 03:53:14;;;;;;;5.13;1.25;;;11.90;99.90;;;;;;5089386;28;20039;-88
2021/12/30 03:55:41;;;;;;;9.65;2.00;;;11.90;99.90;;;;;;5091539;28;20027;-88
2021/12/30 03:58:07;;;;;;;7.43;2.35;;;11.90;99.90;;;;;;5099441;28;20016;-88
2021/12/30 04:00:34;;;;;;;2.65;1.20;;;11.90;99.90;;;;;;5089316;28;20114;-88
2021/12/30 04:03:00;;;;;;;5.97;2.83;;;12.00;99.90;;;;;;5085264;28;20024;-88
2021/12/30 04:05:26;;;;;;;6.03;1.77;;;12.00;99.90;;;;;;5103128;28;20023;-88
2021/12/30 04:07:52;;;;;;;5.60;1.88;;;12.00;99.90;;;;;;5089442;28;20030;-88
2021/12/30 04:10:21;;;;;;;5.45;2.15;;;12.00;99.90;;;;;;5092960;28;20027;-88
2021/12/30 04:12:48;;;;;;;6.70;2.40;;;12.10;99.90;;;;;;5085755;28;20059;-88
2021/12/30 04:15:15;;;;;;;9.18;2.65;;;12.10;99.90;;;;;;5090908;28;20059;-87
2021/12/30 04:17:41;;;;;;;16.02;1.90;;;12.10;99.90;;;;;;5083207;28;20047;-87
2021/12/30 04:20:10;;;;;;;8.93;2.75;;;12.20;99.90;;;;;;5087074;28;20024;-87
2021/12/30 04:22:38;;;;;;;2.20;1.05;;;12.20;99.90;;;;;;5081894;28;20044;-88
2021/12/30 04:25:06;;;;;;;5.85;2.03;;;12.20;99.90;;;;;;5097979;28;20485;-88
2021/12/30 04:27:32;;;;;;;9.95;1.67;;;12.20;99.90;;;;;;5082643;28;20016;-87
2021/12/30 04:29:58;;;;;;;4.93;1.50;;;;;;;;;;5086159;28;20019;-88
2021/12/30 04:32:23;;;;;;;4.75;1.88;;;12.30;99.90;;;;;;5089990;28;20020;-88
2021/12/30 04:34:49;;;;;;;13.57;2.03;;;12.30;99.90;;;;;;5092541;28;20785;-88
2021/12/30 04:37:15;;;;;;;11.10;1.85;;;12.30;99.90;;;;;;5084859;28;20040;-88
2021/12/30 04:39:41;;;;;;;5.47;1.98;;;12.40;99.90;;;;;;5082942;28;20035;-88
2021/12/30 04:42:06;;;;;;;17.80;2.80;;;12.40;99.90;;;;;;5091604;28;20367;-88
2021/12/30 04:44:32;;;;;;;7.38;2.55;;;12.40;99.90;;;;;;5074231;28;20078;-88
2021/12/30 04:46:58;;;;;;;4.85;1.73;;;12.40;99.90;;;;;;5079907;28;20024;-89
2021/12/30 04:49:25;;;;;;;7.80;1.42;;;12.40;99.90;;;;;;5083326;28;20504;-90
2021/12/30 04:51:51;;;;;;;10.38;2.28;;;12.50;99.90;;;;;;5073069;28;20098;-88
2021/12/30 04:54:18;;;;;;;8.63;2.05;;;;;;;;;;5076034;28;20036;-88
2021/12/30 04:56:44;;;;;;;2.85;1.60;;;;;;;;;;5077192;28;20381;-89
2021/12/30 04:59:10;;;;;;;4.85;1.42;;;;;;;;;;5077361;28;20055;-88
2021/12/30 05:01:38;;;;;;;5.07;1.50;;;12.50;99.90;;;;;;5084684;28;20028;-88
2021/12/30 05:04:04;;;;;;;10.02;2.20;;;12.50;99.90;;;;;;5077807;28;20025;-88
2021/12/30 05:06:31;;;;;;;7.15;2.03;;;12.50;99.90;;;;;;5078336;28;20127;-89
2021/12/30 05:08:57;;;;;;;3.83;1.38;;;12.50;99.90;;;;;;5085093;28;20034;-89
2021/12/30 05:11:23;;;;;;;3.67;1.50;;;;;;;;;;5073367;28;20020;-89
2021/12/30 05:13:49;;;;;;;3.53;1.27;;;12.50;99.90;;;;;;5075157;28;20098;-89
2021/12/30 05:16:16;;;;;;;3.50;1.27;;;12.50;99.90;;;;;;5078688;28;20424;-89
2021/12/30 05:18:41;;;;;;;1.85;0.80;;;12.60;99.90;;;;;;5082901;28;20706;-89
2021/12/30 05:21:07;;;;;;;4.95;1.48;;;12.60;99.90;;;;;;5078105;28;20058;-89
2021/12/30 05:23:33;;;;;;;1.17;0.70;;;12.80;99.90;;;;;;5065200;28;20050;-89
2021/12/30 05:25:58;;;;;;;4.78;1.20;;;12.60;99.90;;;;;;5073246;28;20079;-89
2021/12/30 05:28:25;;;;;;;1.90;0.80;;;12.60;99.90;;;;;;5071494;28;20052;-91
2021/12/30 05:30:51;;;;;;;1.42;0.88;;;12.80;99.90;;;;;;5077436;28;20085;-89
2021/12/30 05:33:16;;;;;;;3.90;1.20;;;12.60;99.90;;;;;;5086176;28;20102;-89
2021/12/30 05:35:42;;;;;;;1.65;0.98;;;12.50;99.90;;;;;;5077060;28;20092;-88
2021/12/30 05:38:08;;;;;;;2.03;0.95;;;12.60;99.90;;;;;;5084157;28;20016;-89
2021/12/30 05:40:35;;;;;;;5.25;1.08;;;12.60;99.90;;;;;;5080540;28;20029;-89
2021/12/30 05:43:02;;;;;;;1.48;0.95;;;12.70;99.90;;;;;;5085915;28;20154;-88
2021/12/30 05:45:27;;;;;;;2.45;0.85;;;12.60;99.90;;;;;;5078033;28;20501;-88
2021/12/30 05:47:54;;;;;;;5.68;0.90;;;12.70;99.90;;;;;;5079398;28;20104;-89
2021/12/30 05:50:22;;;;;;;2.15;0.80;;;12.70;99.90;;;;;;5062415;28;20029;-89
2021/12/30 05:52:48;;;;;;;3.03;0.80;;;12.60;99.90;;;;;;5079839;28;20140;-91
2021/12/30 05:55:15;;;;;;;1.42;0.85;;;12.60;99.90;;;;;;5078167;28;20553;-89
2021/12/30 05:57:42;;;;;;;2.05;0.63;;;12.70;99.90;;;;;;5074613;28;20042;-90
2021/12/30 06:00:10;;;;;;;0.47;0.47;;;12.70;99.90;;;;;;5078688;28;20020;-89
2021/12/30 06:02:36;;;;;;;1.13;0.70;;;;;;;;;;5075942;28;20509;-89
2021/12/30 06:05:03;;;;;;;1.30;0.80;;;12.70;99.90;;;;;;5082106;28;20016;-88
2021/12/30 06:07:29;;;;;;;1.05;0.60;;;12.70;99.90;;;;;;5087863;28;20031;-89
2021/12/30 06:09:54;;;;;;;0.50;0.50;;;12.60;99.90;;;;;;5075078;28;20027;-89
2021/12/30 06:12:20;;;;;;;1.35;0.68;;;12.70;99.90;;;;;;5099499;28;20123;-89
2021/12/30 06:14:45;;;;;;;0.60;0.60;;;12.70;99.90;;;;;;5083713;28;20035;-91
2021/12/30 06:17:13;;;;;;;1.42;0.70;;;12.70;99.90;;;;;;5081277;28;20085;-89
2021/12/30 06:19:39;;;;;;;1.25;0.65;;;12.70;99.90;;;;;;5086527;28;20020;-89
2021/12/30 06:22:06;;;;;;;0.50;0.50;;;12.70;99.90;;;;;;5088090;28;20068;-91
2021/12/30 06:24:32;;;;;;;0.90;0.60;;;12.70;99.90;;;;;;5085396;28;20031;-91
2021/12/30 06:26:58;;;;;;;1.10;0.80;;;12.70;99.90;;;;;;5077759;28;20024;-89
2021/12/30 06:29:24;;;;;;;1.58;0.88;;;12.70;99.90;;;;;;5079439;28;20031;-89
2021/12/30 06:31:50;;;;;;;0.52;0.52;;;12.70;99.90;;;;;;5069929;28;20114;-89
2021/12/30 06:34:16;;;;;;;1.95;0.70;;;12.70;99.90;;;;;;5088386;28;20390;-88
2021/12/30 06:36:41;;;;;;;0.60;0.60;;;12.70;99.90;;;;;;5081570;28;20020;-89
2021/12/30 06:39:07;;;;;;;0.82;0.70;;;12.80;99.90;;;;;;5085810;28;20047;-88
2021/12/30 06:41:33;;;;;;;0.73;0.63;;;12.70;99.90;;;;;;5090642;28;20106;-88
2021/12/30 06:43:59;;;;;;;0.60;0.60;;;;;;;;;;5082141;28;20024;-88
2021/12/30 06:46:25;;;;;;;0.85;0.60;;;12.80;99.90;;;;;;5084691;28;20024;-89
2021/12/30 06:48:51;;;;;;;1.08;0.77;;;12.70;99.90;;;;;;5098808;28;20395;-88
2021/12/30 06:51:18;;;;;;;1.42;0.80;;;12.80;99.90;;;;;;5084813;28;20131;-89
2021/12/30 06:53:45;;;;;;;0.90;0.75;;;;;;;;;;5088222;28;20048;-88
2021/12/30 06:56:10;;;;;;;0.90;0.70;;;12.80;99.90;;;;;;5071026;28;20044;-88
2021/12/30 06:58:36;;;;;;;1.52;0.80;;;12.90;99.90;;;;;;5086553;28;20024;-88
2021/12/30 07:01:03;;;;;;;1.92;0.63;;;12.90;99.90;;;;;;5084213;28;20016;-89
2021/12/30 07:03:28;;;;;;;0.95;0.70;;;12.90;99.90;;;;;;5099594;28;20185;-89
2021/12/30 07:05:55;;;;;;;1.00;0.85;;;13.00;99.90;;;;;;5087403;28;20100;-88
2021/12/30 07:08:21;;;;;;;1.10;0.65;;;13.00;99.90;;;;;;5081116;28;20054;-88
2021/12/30 07:10:48;;;;;;;1.15;0.80;;;13.10;99.90;;;;;;5082165;28;20082;-89
2021/12/30 07:13:13;;;;;;;1.63;0.82;;;13.00;99.90;;;;;;5081330;28;20106;-88
2021/12/30 07:15:39;;;;;;;3.03;1.05;;;13.10;99.90;;;;;;5071819;28;20054;-88
2021/12/30 07:18:05;;;;;;;2.25;0.85;;;13.10;99.90;;;;;;5105975;28;20115;-88
2021/12/30 07:20:30;;;;;;;2.05;0.88;;;13.20;99.90;;;;;;5085031;28;20024;-88
2021/12/30 07:22:56;;;;;;;2.22;0.95;;;13.20;99.90;;;;;;5081764;28;20020;-88
2021/12/30 07:25:22;;;;;;;5.47;1.20;;;13.20;99.90;;;;;;5081373;28;20069;-89
2021/12/30 07:27:52;;;;;;;3.38;1.35;;;13.30;99.90;;;;;;5081357;28;20016;-88
2021/12/30 07:30:19;;;;;;;4.43;1.40;;;13.30;99.90;;;;;;5079514;28;20024;-89
2021/12/30 07:32:46;;;;;;;1.58;0.80;;;13.30;99.90;;;;;;5078944;28;20020;-88
2021/12/30 07:35:13;;;;;;;1.75;0.95;;;13.30;99.90;;;;;;5097455;28;20073;-88
2021/12/30 07:37:39;;;;;;;3.47;1.30;;;13.30;99.90;;;;;;5080974;28;20023;-89
2021/12/30 07:40:05;;;;;;;1.80;0.88;;;13.30;99.90;;;;;;5076703;28;20393;-89
2021/12/30 07:42:31;;;;;;;2.42;1.00;;;13.40;99.90;;;;;;5080970;28;20534;-88
2021/12/30 07:44:56;;;;;;;2.92;1.30;;;13.40;99.90;;;;;;5080712;28;20027;-88
2021/12/30 07:47:22;;;;;;;3.60;1.15;;;13.40;99.90;;;;;;5086009;28;20052;-89
2021/12/30 07:49:48;;;;;;;2.35;0.98;;;13.40;99.90;;;;;;5103490;28;20028;-90
2021/12/30 07:52:14;;;;;;;1.50;0.80;;;13.40;99.90;;;;;;5087109;28;20513;-88
2021/12/30 07:54:40;;;;;;;3.45;1.05;;;13.40;99.90;;;;;;5081848;28;20051;-88
2021/12/30 07:57:06;;;;;;;1.70;1.00;;;13.50;99.90;;;;;;5086245;28;20031;-88
2021/12/30 07:59:32;;;;;;;2.70;1.15;;;13.50;99.90;;;;;;5086140;28;20096;-89
2021/12/30 08:01:58;;;;;;;2.17;1.10;;;13.40;99.90;;;;;;5078700;28;20069;-88
2021/12/30 08:04:24;;;;;;;2.33;1.20;;;;;;;;;;5075261;28;20088;-89
2021/12/30 08:06:50;;;;;;;2.75;0.98;;;;;;;;;;5080973;28;20023;-89
2021/12/30 08:09:16;;;;;;;1.65;0.95;;;13.50;99.90;;;;;;5078283;28;20097;-89
2021/12/30 08:11:42;;;;;;;3.30;1.08;;;13.40;99.90;;;;;;5076797;28;20040;-89
2021/12/30 08:14:07;;;;;;;2.70;0.95;;;13.40;99.90;;;;;;5079877;28;20141;-88
2021/12/30 08:16:33;;;;;;;3.13;1.13;;;13.40;99.90;;;;;;5089266;28;20070;-89
2021/12/30 08:18:59;;;;;;;1.08;0.70;;;;;;;;;;5086236;28;20031;-88
2021/12/30 08:21:25;;;;;;;2.20;0.80;;;;;;;;;;5082383;28;20027;-88
2021/12/30 08:23:51;;;;;;;2.60;1.00;;;;;;;;;;5086435;28;20135;-89
2021/12/30 08:26:18;;;;;;;2.95;1.10;;;13.40;99.90;;;;;;5077894;28;20024;-89
2021/12/30 08:28:45;;;;;;;1.33;0.68;;;13.40;99.90;;;;;;5080706;28;20051;-89
2021/12/30 08:31:11;;;;;;;4.45;1.13;;;13.40;99.90;;;;;;5078507;28;20031;-90
2021/12/30 08:33:37;;;;;;;3.25;1.10;;;13.40;99.90;;;;;;5082499;28;20482;-89
2021/12/30 08:36:03;;;;;;;1.15;0.75;;;13.40;99.90;;;;;;5075431;28;20031;-90
2021/12/30 08:38:29;;;;;;;1.85;1.20;;;13.40;99.90;;;;;;5080969;28;20016;-89
2021/12/30 08:40:55;;;;;;;1.33;0.75;;;13.50;99.90;;;;;;5081146;28;20022;-89
2021/12/30 08:43:20;;;;;;;1.65;0.82;;;13.50;99.90;;;;;;5083296;28;20032;-89
2021/12/30 08:45:46;;;;;;;1.25;0.70;;;13.40;99.90;;;;;;5082557;28;20026;-88
2021/12/30 08:48:12;;;;;;;0.93;0.60;;;;;;;;;;5086057;28;20542;-88
2021/12/30 08:50:39;;;;;;;2.50;1.13;;;13.40;99.90;;;;;;5075834;28;20028;-89
2021/12/30 08:53:08;;;;;;;2.38;0.93;;;13.50;99.90;;;;;;5079212;28;20032;-88
2021/12/30 08:55:34;;;;;;;1.10;0.80;;;13.60;99.90;;;;;;5083290;28;20378;-90
2021/12/30 08:58:01;;;;;;;2.75;0.90;;;13.40;99.90;;;;;;5081387;28;20024;-90
2021/12/30 09:00:33;;;;;;;1.20;0.70;;;13.50;99.90;;;;;;5092690;28;20024;-89
2021/12/30 09:03:04;;;;;;;1.65;0.65;;;13.50;99.90;;;;;;5079588;28;20043;-89
2021/12/30 09:05:34;;;;;;;2.38;0.90;;;13.50;99.90;;;;;;5099984;28;20012;-90
2021/12/30 09:08:01;;;;;;;2.53;1.00;;;13.50;99.90;;;;;;5076373;28;20434;-88
2021/12/30 09:10:27;;;;;;;1.98;0.93;;;13.50;99.90;;;;;;5079803;28;20030;-88
2021/12/30 09:12:54;;;;;;;1.60;0.80;;;13.50;99.90;;;;;;5078760;28;20027;-89
2021/12/30 09:15:24;;;;;;;3.47;1.00;;;13.40;99.90;;;;;;5073460;28;20023;-88
2021/12/30 09:17:50;;;;;;;2.35;1.08;;;13.40;99.90;;;;;;5081455;28;20468;-88
2021/12/30 09:20:18;;;;;;;1.45;0.85;;;13.50;99.90;;;;;;5084656;28;20023;-89
2021/12/30 09:22:44;;;;;;;2.70;1.10;;;13.50;99.90;;;;;;5073915;28;20399;-89
2021/12/30 09:25:11;;;;;;;1.73;0.77;;;13.50;99.90;;;;;;5077711;28;20490;-89
2021/12/30 09:27:40;;;;;;;1.90;0.82;;;13.50;99.90;;;;;;5078969;28;20365;-89
2021/12/30 09:30:08;;;;;;;1.85;0.90;;;13.50;99.90;;;;;;5076721;28;20020;-88
2021/12/30 09:32:34;;;;;;;3.15;0.93;;;13.50;99.90;;;;;;5079263;28;20056;-89
2021/12/30 09:35:01;;;;;;;2.97;1.20;;;13.50;99.90;;;;;;5098000;28;20411;-89
2021/12/30 09:37:26;;;;;;;4.18;0.80;;;13.50;99.90;;;;;;5086195;28;20060;-88
2021/12/30 09:39:52;;;;;;;1.80;0.75;;;13.50;99.90;;;;;;5082060;28;20016;-89
2021/12/30 09:42:19;;;;;;;0.52;0.52;;;13.50;99.90;;;;;;5077359;28;20020;-89
2021/12/30 09:44:45;;;;;;;1.05;0.70;;;13.50;99.90;;;;;;5077814;28;20040;-89
2021/12/30 09:47:11;;;;;;;1.27;0.70;;;13.50;99.90;;;;;;5076324;28;20201;-89
2021/12/30 09:49:36;;;;;;;3.55;1.20;;;13.60;99.90;;;;;;5075409;28;20523;-87
2021/12/30 09:52:03;;;;;;;2.05;0.95;;;13.60;99.90;;;;;;5087318;28;20043;-88
2021/12/30 09:54:29;;;;;;;1.17;0.73;;;13.70;99.90;;;;;;5083358;28;20053;-88
2021/12/30 09:56:55;;;;;;;0.60;0.60;;;13.70;99.90;;;;;;5098477;28;20070;-88
2021/12/30 09:59:23;;;;;;;1.38;0.73;;;13.80;99.90;;;;;;5075211;28;20027;-88
2021/12/30 10:01:49;;;;;;;2.33;0.68;;;13.90;99.90;;;;;;5080593;28;20660;-89
2021/12/30 10:04:16;;;;;;;3.83;1.25;;;13.90;99.90;;;;;;5076702;28;20028;-91
2021/12/30 10:06:46;;;;;;;1.90;0.95;;;14.00;99.90;;;;;;5079530;28;20028;-91
2021/12/30 10:09:14;;;;;;;1.80;0.70;;;14.00;99.90;;;;;;5080710;28;20139;-89
2021/12/30 10:11:56;;;;;;;0.60;0.60;;;14.00;99.90;;;;;;5089876;28;20038;-89
2021/12/30 10:14:40;;;;;;;1.55;0.93;;;14.00;99.90;;;;;;5084024;28;20076;-89
2021/12/30 10:17:23;;;;;;;2.80;1.10;;;14.00;99.90;;;;;;5095247;28;20016;-89
2021/12/30 10:19:51;;;;;;;3.65;1.42;;;14.10;99.90;;;;;;5079613;28;20024;-89
2021/12/30 10:22:19;;;;;;;2.05;1.00;;;14.20;99.90;;;;;;5079479;28;20024;-89
2021/12/30 10:24:46;;;;;;;3.83;1.40;;;14.20;99.90;;;;;;5076494;28;20070;-89
2021/12/30 10:27:34;;;;;;;0.98;0.70;;;14.30;99.90;;;;;;5080470;28;20067;-89
2021/12/30 10:30:00;;;;;;;1.50;0.80;;;14.30;99.90;;;;;;5074539;28;20078;-89
2021/12/30 10:32:28;;;;;;;3.85;1.30;;;14.40;99.90;;;;;;5080437;28;20016;-89
2021/12/30 10:35:10;;;;;;;1.98;1.00;;;14.40;99.90;;;;;;5074249;28;20020;-89
2021/12/30 10:37:38;;;;;;;2.50;1.02;;;14.50;99.90;;;;;;5068438;28;20044;-89
2021/12/30 10:40:23;;;;;;;4.43;1.23;;;14.50;99.90;;;;;;5082979;28;20111;-89
2021/12/30 10:42:48;;;;;;;1.45;0.73;;;14.40;99.90;;;;;;5081218;28;20017;-88
2021/12/30 10:45:20;;;;;;;2.75;1.15;;;14.30;99.90;;;;;;5081712;28;20548;-89
2021/12/30 10:47:54;;;;;;;2.75;1.20;;;14.30;99.90;;;;;;5075700;28;20024;-89
2021/12/30 10:50:24;;;;;;;3.50;1.10;;;14.30;99.90;;;;;;5084834;28;20117;-88
2021/12/30 10:52:55;;;;;;;2.10;0.90;;;14.20;99.90;;;;;;5056479;28;20068;-89
2021/12/30 10:55:23;;;;;;;1.88;0.90;;;14.30;99.90;;;;;;5075379;28;20162;-89
2021/12/30 10:57:49;;;;;;;2.15;0.80;;;14.30;99.90;;;;;;5054136;28;20023;-88
2021/12/30 11:00:30;;;;;;;2.30;0.85;;;14.30;99.90;;;;;;5067266;28;20040;-88
2021/12/30 11:03:16;;;;;;;2.58;1.05;;;14.30;99.90;;;;;;5058158;28;20862;-88
2021/12/30 11:06:17;;;;;;;2.13;0.85;;;14.40;99.90;;;;;;5058749;28;20020;-88
2021/12/30 11:08:43;;;;;;;1.00;0.68;;;14.50;99.90;;;;;;5077691;28;20132;-88
2021/12/30 11:11:26;;;;;;;2.17;0.88;;;14.60;99.90;;;;;;5061901;28;20053;-89
2021/12/30 11:14:07;;;;;;;1.02;0.70;;;14.70;99.90;;;;;;5067495;28;20024;-88
2021/12/30 11:16:51;;;;;;;2.95;0.90;;;14.80;99.90;;;;;;5086238;28;20065;-89
2021/12/30 11:19:17;;;;;;;1.25;0.88;;;14.80;99.90;;;;;;5066611;28;20024;-88
2021/12/30 11:21:44;;;;;;;1.23;0.75;;;14.90;99.90;;;;;;5062491;28;20028;-88
2021/12/30 11:24:11;;;;;;;1.52;0.85;;;14.80;99.90;;;;;;5081798;28;20028;-89
2021/12/30 11:26:37;;;;;;;7.47;1.30;;;14.90;99.90;;;;;;5064285;28;20032;-89
2021/12/30 11:29:05;;;;;;;1.20;0.70;;;14.80;99.90;;;;;;5074376;28;20024;-88
2021/12/30 11:31:31;;;;;;;1.90;0.75;;;14.70;99.90;;;;;;5066723;28;20469;-89
2021/12/30 11:33:58;;;;;;;2.58;1.10;;;14.60;99.90;;;;;;5064437;28;20047;-88
2021/12/30 11:36:28;;;;;;;1.55;0.80;;;14.60;99.90;;;;;;5064275;28;20103;-91
2021/12/30 11:38:58;;;;;;;2.17;0.70;;;14.50;99.90;;;;;;5065154;28;20013;-88
2021/12/30 11:41:27;;;;;;;1.77;0.95;;;14.60;99.90;;;;;;5072696;28;20028;-88
2021/12/30 11:43:55;;;;;;;3.53;0.98;;;14.60;99.90;;;;;;5065433;28;20499;-88
2021/12/30 11:46:40;;;;;;;2.00;0.90;;;14.60;99.90;;;;;;5061435;28;20514;-89
2021/12/30 11:49:07;;;;;;;2.70;1.25;;;14.60;99.90;;;;;;5060733;28;20021;-89
2021/12/30 11:51:45;;;;;;;1.83;0.88;;;14.70;99.90;;;;;;5078392;28;20048;-90
2021/12/30 11:54:40;;;;;;;2.40;1.00;;;14.70;99.90;;;;;;5085653;28;20042;-89
2021/12/30 11:57:34;;;;;;;0.90;0.65;;;14.60;99.90;;;;;;5086154;28;20051;-89
2021/12/30 12:00:21;;;;;;;4.75;1.30;;;14.60;99.90;;;;;;5090076;28;20391;-88
2021/12/30 12:02:46;;;;;;;3.50;0.85;;;14.60;99.90;;;;;;5081733;28;20028;-88
2021/12/30 12:05:39;;;;;;;2.17;1.10;;;14.60;99.90;;;;;;5087433;28;20015;-88
2021/12/30 12:08:07;;;;;;;1.25;0.75;;;14.60;99.90;;;;;;5081385;28;20020;-88
2021/12/30 12:10:33;;;;;;;4.78;1.20;;;14.60;99.90;;;;;;5085874;28;20024;-88
2021/12/30 12:13:31;;;;;;;3.00;1.20;;;14.50;99.90;;;;;;5085631;28;20505;-90
2021/12/30 12:15:58;;;;;;;3.13;1.00;;;14.50;99.90;;;;;;5076661;28;20020;-88
2021/12/30 12:18:24;;;;;;;1.30;0.88;;;14.50;99.90;;;;;;5086979;28;20394;-88
2021/12/30 12:20:52;;;;;;;1.98;0.90;;;14.50;99.90;;;;;;5094400;28;20581;-88
2021/12/30 12:23:36;;;;;;;4.28;1.60;;;14.50;99.90;;;;;;5068911;28;20029;-88
2021/12/30 12:26:07;;;;;;;2.30;1.02;;;14.40;99.90;;;;;;5087323;28;20113;-88
2021/12/30 12:28:34;;;;;;;1.00;0.63;;;14.40;99.90;;;;;;5078883;28;20031;-88
2021/12/30 12:31:00;;;;;;;1.38;0.75;;;;;;;;;;5080262;28;20102;-89
2021/12/30 12:33:34;;;;;;;1.90;1.00;;;14.40;99.90;;;;;;5087465;28;20023;-88
2021/12/30 12:36:01;;;;;;;1.75;0.98;;;14.40;99.90;;;;;;5087943;28;20020;-88
2021/12/30 12:38:48;;;;;;;4.55;1.10;;;14.40;99.90;;;;;;5088474;28;20104;-88
2021/12/30 12:41:31;;;;;;;3.28;1.20;;;14.30;99.90;;;;;;5081950;28;20032;-88
2021/12/30 12:43:58;;;;;;;3.47;1.30;;;14.30;99.90;;;;;;5083494;28;20024;-88
2021/12/30 12:46:56;;;;;;;5.07;1.40;;;14.20;99.90;;;;;;5083760;28;20046;-88
2021/12/30 12:49:34;;;;;;;1.67;0.85;;;14.30;99.90;;;;;;5061612;28;20064;-89
2021/12/30 12:52:02;;;;;;;2.92;1.13;;;14.30;99.90;;;;;;5080521;28;20082;-88
2021/12/30 12:54:37;;;;;;;4.03;1.17;;;14.20;99.90;;;;;;5083036;28;20023;-88
2021/12/30 12:57:18;;;;;;;3.33;1.10;;;14.30;99.90;;;;;;5083874;28;20043;-89